Portsmouth, NH

11:59 PM EDT on September 01, 2015 (GMT -0400)
APRSWXNET | | Change Station
CLOSE
Current Station
Personal Weather Station
Location: Portsmouth, NH
Elevation: 26 ft
Nearby Weather Stations

Elev 26 ft 43.08 °N, 70.77 °W | Updated 63 days ago

Clear
Clear
63 °F
Feels Like 63 °F
N
3
Wind Variable Wind from South
Gusts mph

Today
High -- | Low -- °F
--% Chance of Precip.
Yesterday
High -- | Low -- °F
Precip. -- in
6:07 AM 7:18 PM
Waning Gibbous, 84% visible
Pressure 30.03 in
Visibility 10.0 miles
Clouds Clear
Dew Point 61 °F
Humidity 95%
Rainfall in
Snow Depth Not available.
UV 0 out of 12
Pollen 7.90 out of 12
Air Quality Not available.
Flu Activity Not available.
METAR KPSM 020258Z COR 00000KT 10SM CLR 17/15 A3002 RMK AO2A SLP168 T01740152 50001 COR 0259
Pressure 30.03 in
Visibility 10.0 miles
Clouds Clear
Dew Point 61 °F
Humidity 95%
Rainfall in
Snow Depth Not available.
UV 0 out of 12
Pollen 7.90 out of 12
Air Quality Not available.
Flu Activity Not available.
METAR KPSM 020258Z COR 00000KT 10SM CLR 17/15 A3002 RMK AO2A SLP168 T01740152 50001 COR 0259

10-Day Weather Forecast

×

Almanac

Astronomy

Sep. 01, 2015 Rise Set
Actual Time
Civil Twilight
Nautical Twilight
Astronomical Twilight
Moon
Length of Visible Light
Length of Day
Tomorrow will be .
, % of the Moon is Illuminated

Today's Extremes

State Highs State Lows

Community

WunderPhotos

Upload Photos

1,851,690 photos uploaded!

WunderBlogs® & News

Nearby

Air Quality

  Air Quality AQ Index Pollutant
Not available.

Snow Depth

Station Depth Elevation

Earthquake Activity

City Distance Mag. Time & Date
Minimum magnitude displayed is 2.5.

Coastal Water Temperatures

Place Temperature

Stations

Nearby Weather Stations

Station Location Temp. Windchill Dew Point Humidity Wind Precip. Elev Updated Type